createdAt,value
2023-04-21T00:01:48.328Z,101793.81
2023-04-21T00:04:15.244Z,101792.94
2023-04-21T00:06:41.845Z,101787.03
2023-04-21T00:09:08.664Z,101776.78
2023-04-21T00:11:35.473Z,101766.59
2023-04-21T00:14:01.951Z,101775.97
2023-04-21T00:16:28.482Z,101775.97
2023-04-21T00:18:54.879Z,101765.78
2023-04-21T00:21:21.260Z,101759.00
2023-04-21T00:23:47.690Z,101745.34
2023-04-21T00:26:14.087Z,101758.13
2023-04-21T00:28:40.491Z,101761.56
2023-04-21T00:31:06.960Z,101754.78
2023-04-21T00:33:33.428Z,101753.06
2023-04-21T00:35:59.905Z,101747.09
2023-04-21T00:38:26.356Z,101744.56
2023-04-21T00:40:52.815Z,101750.53
2023-04-21T00:43:19.214Z,101736.06
2023-04-21T00:45:47.118Z,101739.50
2023-04-21T00:48:13.722Z,101747.16
2023-04-21T00:50:40.334Z,101745.47
2023-04-21T00:53:07.197Z,101738.69
2023-04-21T00:55:34.253Z,101735.28
2023-04-21T00:58:02.444Z,101727.69
2023-04-21T01:00:29.483Z,101720.88
2023-04-21T01:02:56.240Z,101726.78
2023-04-21T01:05:23.634Z,101724.25
2023-04-21T01:07:50.463Z,101720.88
2023-04-21T01:10:17.026Z,101716.63
2023-04-21T01:12:47.179Z,101722.59
2023-04-21T01:15:15.125Z,101712.38
2023-04-21T01:17:42.240Z,101717.50
2023-04-21T01:20:11.755Z,101710.69
2023-04-21T01:22:39.402Z,101703.03
2023-04-21T01:25:06.127Z,101711.53
2023-04-21T01:27:32.657Z,101703.06
2023-04-21T01:29:59.803Z,101701.31
2023-04-21T01:32:30.110Z,101699.59
2023-04-21T01:34:58.174Z,101696.22
2023-04-21T01:37:31.583Z,101693.66
2023-04-21T01:40:01.322Z,101695.34
2023-04-21T01:42:29.265Z,101686.00
2023-04-21T01:44:57.004Z,101677.50
2023-04-21T01:47:24.705Z,101685.16
2023-04-21T01:49:51.830Z,101677.50
2023-04-21T01:52:18.235Z,101681.75
2023-04-21T01:54:44.718Z,101676.66
2023-04-21T01:57:11.589Z,101667.28
2023-04-21T01:59:38.203Z,101671.53
2023-04-21T02:02:05.101Z,101672.38
2023-04-21T02:04:31.849Z,101676.63
2023-04-21T02:06:58.457Z,101679.19
2023-04-21T02:09:24.956Z,101682.59
2023-04-21T02:11:51.395Z,101681.75
2023-04-21T02:14:18.081Z,101689.38
2023-04-21T02:16:44.512Z,101685.97
2023-04-21T02:19:11.003Z,101684.28
2023-04-21T02:21:37.451Z,101682.56
2023-04-21T02:24:04.237Z,101676.63
2023-04-21T02:26:30.722Z,101668.09
2023-04-21T02:28:57.249Z,101671.50
2023-04-21T02:31:23.765Z,101668.97
2023-04-21T02:33:50.209Z,101680.84
2023-04-21T02:36:16.823Z,101675.75
2023-04-21T02:38:43.263Z,101670.66
2023-04-21T02:41:09.658Z,101665.56
2023-04-21T02:43:36.083Z,101671.50
2023-04-21T02:46:09.312Z,101670.66
2023-04-21T02:48:36.882Z,101667.25
2023-04-21T02:51:04.380Z,101673.22
2023-04-21T02:53:31.044Z,101665.56
2023-04-21T02:55:57.722Z,101657.91
2023-04-21T02:58:24.208Z,101652.00
2023-04-21T03:00:51.572Z,101655.41
2023-04-21T03:03:18.539Z,101658.81
2023-04-21T03:05:45.534Z,101662.22
2023-04-21T03:08:12.075Z,101660.50
2023-04-21T03:10:38.884Z,101648.63
2023-04-21T03:13:05.318Z,101658.84
2023-04-21T03:15:31.979Z,101658.84
2023-04-21T03:17:58.550Z,101664.78
2023-04-21T03:20:25.080Z,101663.94
2023-04-21T03:22:54.145Z,101650.34
2023-04-21T03:25:20.870Z,101644.38
2023-04-21T03:27:47.411Z,101652.00
2023-04-21T03:30:13.914Z,101649.47
2023-04-21T03:32:40.517Z,101652.88
2023-04-21T03:35:07.405Z,101651.16
2023-04-21T03:37:33.837Z,101653.72
2023-04-21T03:40:01.085Z,101622.28
2023-04-21T03:42:27.523Z,101653.75
2023-04-21T03:44:54.064Z,101640.13
2023-04-21T03:47:20.548Z,101641.84
2023-04-21T03:49:47.005Z,101638.44
2023-04-21T03:52:13.464Z,101624.88
2023-04-21T03:54:39.983Z,101630.84
2023-04-21T03:57:06.856Z,101618.09
2023-04-21T03:59:33.373Z,101616.38
2023-04-21T04:02:00.353Z,101613.84
2023-04-21T04:04:27.074Z,101620.63
2023-04-21T04:06:53.636Z,101632.53
2023-04-21T04:09:20.630Z,101632.53
2023-04-21T04:11:47.208Z,101616.41
2023-04-21T04:14:13.750Z,101605.38
2023-04-21T04:16:41.486Z,101617.28
2023-04-21T04:19:08.547Z,101624.09
2023-04-21T04:21:35.212Z,101606.22
2023-04-21T04:24:05.417Z,101608.78
2023-04-21T04:26:34.531Z,101602.84
2023-04-21T04:29:02.280Z,101607.91
2023-04-21T04:31:32.452Z,101605.38
2023-04-21T04:33:59.038Z,101619.84
2023-04-21T04:36:25.759Z,101614.75
2023-04-21T04:38:52.196Z,101609.63
2023-04-21T04:41:19.590Z,101615.59
2023-04-21T04:43:46.612Z,101612.19
2023-04-21T04:46:13.645Z,101612.19
2023-04-21T04:48:40.544Z,101607.06
2023-04-21T04:51:07.256Z,101602.81
2023-04-21T04:53:33.710Z,101607.91
2023-04-21T04:56:00.430Z,101607.09
2023-04-21T04:58:27.074Z,101612.16
2023-04-21T05:00:53.566Z,101600.25
2023-04-21T05:03:20.308Z,101613.00
2023-04-21T05:05:47.178Z,101613.00
2023-04-21T05:08:15.712Z,101622.31
2023-04-21T05:10:43.615Z,101620.59
2023-04-21T05:13:10.248Z,101616.34
2023-04-21T05:15:36.875Z,101625.69
2023-04-21T05:18:03.489Z,101627.38
2023-04-21T05:20:29.964Z,101631.59
2023-04-21T05:22:56.372Z,101640.09
2023-04-21T05:25:22.820Z,101625.66
2023-04-21T05:27:49.288Z,101628.19
2023-04-21T05:30:15.825Z,101632.41
2023-04-21T05:32:42.386Z,101628.13
2023-04-21T05:35:08.990Z,101612.84
2023-04-21T05:37:35.462Z,101626.41
2023-04-21T05:40:01.917Z,101628.09
2023-04-21T05:42:28.418Z,101641.66
2023-04-21T05:44:55.212Z,101655.25
2023-04-21T05:47:21.699Z,101649.28
2023-04-21T05:49:52.470Z,101645.00
2023-04-21T05:52:19.439Z,101649.25
2023-04-21T05:54:45.988Z,101644.13
2023-04-21T05:57:12.485Z,101654.31
2023-04-21T05:59:39.356Z,101647.47
2023-04-21T06:02:06.000Z,101650.81
2023-04-21T06:04:32.685Z,101646.56
2023-04-21T06:07:05.923Z,101648.22
2023-04-21T06:09:32.363Z,101650.75
2023-04-21T06:11:58.850Z,101656.69
2023-04-21T06:14:25.328Z,101643.03
2023-04-21T06:16:51.742Z,101641.31
2023-04-21T06:19:18.295Z,101639.59
2023-04-21T06:21:44.856Z,101646.38
2023-04-21T06:24:11.288Z,101642.09
2023-04-21T06:26:37.643Z,101636.97
2023-04-21T06:29:04.232Z,101635.22
2023-04-21T06:31:30.981Z,101635.19
2023-04-21T06:33:57.491Z,101632.56
2023-04-21T06:36:24.063Z,101635.94
2023-04-21T06:38:51.638Z,101635.88
2023-04-21T06:41:18.219Z,101639.25
2023-04-21T06:43:44.687Z,101644.34
2023-04-21T06:46:11.288Z,101643.47
2023-04-21T06:48:37.698Z,101635.75
2023-04-21T06:51:04.289Z,101634.84
2023-04-21T06:53:30.888Z,101635.69
2023-04-21T06:55:57.465Z,101625.38
2023-04-21T06:58:23.909Z,101624.44
2023-04-21T07:00:50.477Z,101625.16
2023-04-21T07:03:17.020Z,101616.53
2023-04-21T07:05:43.513Z,101623.31
2023-04-21T07:08:09.986Z,101624.88
2023-04-21T07:10:36.519Z,101625.56
2023-04-21T07:13:02.981Z,101628.84
2023-04-21T07:15:29.418Z,101620.88
2023-04-21T07:17:55.986Z,101620.59
2023-04-21T07:20:22.450Z,101618.72
2023-04-21T07:22:49.120Z,101624.69
2023-04-21T07:25:16.124Z,101616.09
2023-04-21T07:27:42.647Z,101622.88
2023-04-21T07:30:09.543Z,101628.84
2023-04-21T07:32:38.458Z,101633.06
2023-04-21T07:35:06.600Z,101627.91
2023-04-21T07:37:33.164Z,101633.81
2023-04-21T07:39:59.683Z,101635.38
2023-04-21T07:42:26.879Z,101633.56
2023-04-21T07:44:55.886Z,101632.47
2023-04-21T07:47:22.314Z,101628.09
2023-04-21T07:49:49.005Z,101628.84
2023-04-21T07:52:15.397Z,101633.91
2023-04-21T07:54:42.364Z,101632.84
2023-04-21T07:57:08.898Z,101627.56
2023-04-21T07:59:35.521Z,101621.31
2023-04-21T08:02:02.398Z,101620.25
2023-04-21T08:04:29.408Z,101615.59
2023-04-21T08:06:56.066Z,101612.88
2023-04-21T08:09:23.292Z,101605.13
2023-04-21T08:11:49.944Z,101604.22
2023-04-21T08:14:16.992Z,101614.50
2023-04-21T08:16:43.780Z,101615.44
2023-04-21T08:19:10.514Z,101611.06
2023-04-21T08:21:37.013Z,101618.75
2023-04-21T08:24:03.822Z,101623.97
2023-04-21T08:26:30.373Z,101622.19
2023-04-21T08:28:57.338Z,101619.34
2023-04-21T08:31:24.021Z,101616.66
2023-04-21T08:34:01.127Z,101617.22
2023-04-21T08:36:30.201Z,101609.16
2023-04-21T08:38:57.353Z,101606.31
2023-04-21T08:41:25.385Z,101614.56
2023-04-21T08:43:52.437Z,101618.72
2023-04-21T08:46:19.382Z,101616.03
2023-04-21T08:48:47.478Z,101611.69
2023-04-21T08:51:21.349Z,101616.81
2023-04-21T08:53:47.893Z,101615.78
2023-04-21T08:56:14.949Z,101616.53
2023-04-21T08:58:41.922Z,101613.25
2023-04-21T09:01:08.736Z,101604.75
2023-04-21T09:03:35.450Z,101602.03
2023-04-21T09:06:07.813Z,101611.13
2023-04-21T09:08:38.268Z,101606.66
2023-04-21T09:11:04.751Z,101613.16
2023-04-21T09:13:37.909Z,101613.81
2023-04-21T09:16:14.821Z,101611.31
2023-04-21T09:18:44.217Z,101611.47
2023-04-21T09:21:13.462Z,101614.47
2023-04-21T09:23:47.699Z,101610.81
2023-04-21T09:26:16.123Z,101610.22
2023-04-21T09:28:50.409Z,101604.06
2023-04-21T09:31:20.139Z,101605.81
2023-04-21T09:33:57.171Z,101606.09
2023-04-21T09:36:28.141Z,101607.78
2023-04-21T09:39:03.854Z,101617.88
2023-04-21T09:41:41.361Z,101612.72
2023-04-21T09:44:08.137Z,101605.06
2023-04-21T09:46:36.650Z,101599.31
2023-04-21T09:49:04.366Z,101596.09
2023-04-21T09:51:48.594Z,101587.25
2023-04-21T09:54:29.578Z,101591.16
2023-04-21T09:57:01.690Z,101586.13
2023-04-21T09:59:40.821Z,101585.06
2023-04-21T10:02:08.501Z,101590.72
2023-04-21T10:04:44.225Z,101584.25
2023-04-21T10:07:11.660Z,101587.78
2023-04-21T10:09:46.155Z,101593.31
2023-04-21T10:12:13.913Z,101589.16
2023-04-21T10:14:40.640Z,101574.59
2023-04-21T10:17:10.104Z,101585.91
2023-04-21T10:19:40.790Z,101583.69
2023-04-21T10:22:08.625Z,101578.53
2023-04-21T10:24:42.733Z,101573.44
2023-04-21T10:27:13.103Z,101571.59
2023-04-21T10:29:52.740Z,101570.44
2023-04-21T10:32:42.597Z,101573.09
2023-04-21T10:35:10.812Z,101571.81
2023-04-21T10:37:37.270Z,101568.81
2023-04-21T10:40:09.403Z,101570.09
2023-04-21T10:42:37.238Z,101557.88
2023-04-21T10:45:09.096Z,101565.66
2023-04-21T10:47:41.327Z,101559.72
2023-04-21T10:50:30.887Z,101557.03
2023-04-21T10:52:57.351Z,101554.72
2023-04-21T10:55:28.768Z,101545.94
2023-04-21T10:57:55.926Z,101548.53
2023-04-21T11:00:24.871Z,101553.34
2023-04-21T11:03:00.666Z,101548.88
2023-04-21T11:05:34.555Z,101543.91
2023-04-21T11:08:09.602Z,101539.28
2023-04-21T11:10:55.656Z,101526.16
2023-04-21T11:13:27.565Z,101529.50
2023-04-21T11:16:07.166Z,101521.66
2023-04-21T11:18:38.766Z,101519.06
2023-04-21T11:21:18.628Z,101521.41
2023-04-21T11:23:56.238Z,101513.88
2023-04-21T11:26:38.541Z,101518.53
2023-04-21T11:29:07.543Z,101515.56
2023-04-21T11:31:35.211Z,101518.41
2023-04-21T11:34:05.179Z,101510.38
2023-04-21T11:36:35.500Z,101510.66
2023-04-21T11:39:13.464Z,101506.66
2023-04-21T11:41:44.647Z,101501.69
2023-04-21T11:44:12.537Z,101498.94
2023-04-21T11:46:46.392Z,101493.06
2023-04-21T11:49:17.140Z,101482.41
2023-04-21T11:51:44.162Z,101487.63
2023-04-21T11:54:13.054Z,101480.63
2023-04-21T11:56:41.768Z,101473.13
2023-04-21T11:59:10.825Z,101464.78
2023-04-21T12:01:47.683Z,101462.31
2023-04-21T12:04:18.629Z,101466.84
2023-04-21T12:06:46.877Z,101459.84
2023-04-21T12:09:18.769Z,101463.38
2023-04-21T12:11:51.490Z,101461.34
2023-04-21T12:14:20.232Z,101457.84
2023-04-21T12:16:52.179Z,101462.88
2023-04-21T12:19:34.347Z,101455.03
2023-04-21T12:22:01.158Z,101449.72
2023-04-21T12:24:27.775Z,101451.84
2023-04-21T12:26:54.292Z,101446.59
2023-04-21T12:29:20.772Z,101446.13
2023-04-21T12:31:47.177Z,101442.13
2023-04-21T12:34:13.739Z,101432.66
2023-04-21T12:36:40.466Z,101439.59
2023-04-21T12:39:07.339Z,101432.06
2023-04-21T12:41:34.924Z,101423.06
2023-04-21T12:44:01.620Z,101422.69
2023-04-21T12:46:28.641Z,101411.94
2023-04-21T12:48:55.956Z,101419.25
2023-04-21T12:51:22.389Z,101413.97
2023-04-21T12:53:49.407Z,101414.16
2023-04-21T12:56:16.186Z,101409.91
2023-04-21T12:58:42.637Z,101412.91
2023-04-21T13:01:09.221Z,101406.69
2023-04-21T13:03:35.976Z,101410.59
2023-04-21T13:06:02.598Z,101405.91
2023-04-21T13:08:29.012Z,101399.63
2023-04-21T13:10:55.703Z,101397.47
2023-04-21T13:13:22.195Z,101393.09
2023-04-21T13:15:48.853Z,101395.00
2023-04-21T13:18:15.405Z,101394.00
2023-04-21T13:20:41.793Z,101390.06
2023-04-21T13:23:08.774Z,101371.16
2023-04-21T13:25:35.408Z,101374.38
2023-04-21T13:28:01.819Z,101366.41
2023-04-21T13:30:28.263Z,101372.56
2023-04-21T13:32:54.779Z,101363.03
2023-04-21T13:35:21.448Z,101364.84
2023-04-21T13:37:49.279Z,101352.41
2023-04-21T13:40:15.948Z,101353.13
2023-04-21T13:42:42.314Z,101352.78
2023-04-21T13:45:09.424Z,101341.28
2023-04-21T13:47:36.088Z,101332.97
2023-04-21T13:50:02.500Z,101320.47
2023-04-21T13:52:28.872Z,101317.59
2023-04-21T13:54:55.574Z,101311.00
2023-04-21T13:57:22.182Z,101309.75
2023-04-21T13:59:48.583Z,101309.66
2023-04-21T14:02:15.104Z,101305.31
2023-04-21T14:04:42.042Z,101293.47
2023-04-21T14:07:09.025Z,101292.22
2023-04-21T14:09:35.755Z,101286.38
2023-04-21T14:12:03.580Z,101284.88
2023-04-21T14:14:39.020Z,101280.41
2023-04-21T14:17:06.566Z,101279.41
2023-04-21T14:19:33.147Z,101273.50
2023-04-21T14:21:59.785Z,101268.00
2023-04-21T14:24:28.657Z,101265.19
2023-04-21T14:26:56.217Z,101265.41
2023-04-21T14:29:23.053Z,101261.75
2023-04-21T14:31:50.412Z,101257.00
2023-04-21T14:34:17.051Z,101245.13
2023-04-21T14:36:43.495Z,101246.31
2023-04-21T14:39:10.318Z,101249.75
2023-04-21T14:41:36.821Z,101242.25
2023-04-21T14:44:03.815Z,101243.69
2023-04-21T14:46:30.486Z,101244.13
2023-04-21T14:48:57.577Z,101239.78
2023-04-21T14:51:24.116Z,101232.53
2023-04-21T14:53:51.271Z,101236.00
2023-04-21T14:56:18.732Z,101232.03
2023-04-21T14:58:45.310Z,101228.06
2023-04-21T15:01:12.705Z,101226.75
2023-04-21T15:03:39.262Z,101214.88
2023-04-21T15:06:06.517Z,101203.75
2023-04-21T15:08:33.014Z,101199.75
2023-04-21T15:10:59.583Z,101197.25
2023-04-21T15:13:26.349Z,101192.91
2023-04-21T15:15:52.998Z,101191.75
2023-04-21T15:18:20.826Z,101185.59
2023-04-21T15:20:48.180Z,101189.56
2023-04-21T15:23:14.877Z,101184.66
2023-04-21T15:25:41.900Z,101188.06
2023-04-21T15:28:08.650Z,101171.06
2023-04-21T15:30:35.639Z,101173.63
2023-04-21T15:33:02.597Z,101161.00
2023-04-21T15:35:29.221Z,101160.06
2023-04-21T15:37:55.790Z,101156.59
2023-04-21T15:40:22.228Z,101150.31
2023-04-21T15:42:48.725Z,101146.34
2023-04-21T15:45:17.828Z,101146.03
2023-04-21T15:47:44.401Z,101144.25
2023-04-21T15:50:11.332Z,101138.97
2023-04-21T15:52:40.977Z,101140.56
2023-04-21T15:55:08.289Z,101145.63
2023-04-21T15:57:34.724Z,101137.41
2023-04-21T16:00:01.260Z,101135.78
2023-04-21T16:02:27.890Z,101129.94
2023-04-21T16:04:54.755Z,101130.31
2023-04-21T16:07:21.399Z,101121.91
2023-04-21T16:09:47.804Z,101119.50
2023-04-21T16:12:14.371Z,101110.75
2023-04-21T16:14:54.419Z,101114.50
2023-04-21T16:17:24.164Z,101115.97
2023-04-21T16:19:52.696Z,101111.25
2023-04-21T16:22:20.315Z,101101.53
2023-04-21T16:24:47.199Z,101104.94
2023-04-21T16:27:13.653Z,101102.28
2023-04-21T16:29:40.105Z,101100.13
2023-04-21T16:32:07.002Z,101093.16
2023-04-21T16:34:33.765Z,101092.97
2023-04-21T16:37:00.642Z,101084.44
2023-04-21T16:39:27.657Z,101074.78
2023-04-21T16:41:54.102Z,101070.59
2023-04-21T16:44:21.063Z,101067.81
2023-04-21T16:46:47.662Z,101065.47
2023-04-21T16:49:14.239Z,101064.50
2023-04-21T16:51:44.582Z,101061.78
2023-04-21T16:54:11.888Z,101061.84
2023-04-21T16:56:38.787Z,101059.28
2023-04-21T16:59:06.824Z,101052.22
2023-04-21T17:01:33.475Z,101049.72
2023-04-21T17:04:00.210Z,101051.38
2023-04-21T17:06:26.834Z,101055.19
2023-04-21T17:08:59.560Z,101054.88
2023-04-21T17:11:27.485Z,101043.59
2023-04-21T17:13:54.188Z,101052.16
2023-04-21T17:16:21.013Z,101051.78
2023-04-21T17:18:47.577Z,101059.13
2023-04-21T17:21:14.128Z,101058.09
2023-04-21T17:23:40.939Z,101054.06
2023-04-21T17:26:10.718Z,101057.06
2023-04-21T17:28:38.841Z,101050.63
2023-04-21T17:31:15.217Z,101045.16
2023-04-21T17:33:43.298Z,101045.25
2023-04-21T17:36:10.085Z,101033.63
2023-04-21T17:38:36.607Z,101021.97
2023-04-21T17:41:04.511Z,101013.63
2023-04-21T17:43:30.964Z,101009.56
2023-04-21T17:45:57.556Z,101013.38
2023-04-21T17:48:24.154Z,101010.22
2023-04-21T17:50:51.129Z,101015.41
2023-04-21T17:53:18.037Z,101003.00
2023-04-21T17:55:44.817Z,100987.53
2023-04-21T17:58:12.614Z,100999.66
2023-04-21T18:00:39.442Z,101001.13
2023-04-21T18:03:06.044Z,101000.84
2023-04-21T18:05:33.412Z,101031.22
2023-04-21T18:08:00.713Z,101063.13
2023-04-21T18:10:30.617Z,101086.41
2023-04-21T18:12:57.577Z,101125.75
2023-04-21T18:15:24.368Z,101188.63
2023-04-21T18:17:52.988Z,101123.47
2023-04-21T18:20:19.644Z,101120.28
2023-04-21T18:22:46.244Z,101135.78
2023-04-21T18:25:13.162Z,101113.44
2023-04-21T18:27:39.795Z,101107.47
2023-04-21T18:30:08.695Z,101092.00
2023-04-21T18:32:39.889Z,101088.53
2023-04-21T18:35:07.185Z,101092.94
2023-04-21T18:37:33.687Z,101090.50
2023-04-21T18:40:00.226Z,101069.47
2023-04-21T18:42:27.112Z,101061.22
2023-04-21T18:44:56.323Z,101069.22
2023-04-21T18:47:24.378Z,101076.66
2023-04-21T18:49:51.498Z,101092.31
2023-04-21T18:52:18.091Z,101082.28
2023-04-21T18:54:44.672Z,101079.78
2023-04-21T18:57:11.523Z,101080.34
2023-04-21T18:59:38.026Z,101069.78
2023-04-21T19:02:06.049Z,101080.34
2023-04-21T19:04:33.058Z,101075.47
2023-04-21T19:06:59.512Z,101080.84
2023-04-21T19:09:27.186Z,101075.16
2023-04-21T19:11:53.568Z,101068.13
2023-04-21T19:14:20.119Z,101071.19
2023-04-21T19:16:48.766Z,101065.31
2023-04-21T19:19:15.557Z,101062.59
2023-04-21T19:21:41.928Z,101062.75
2023-04-21T19:24:08.324Z,101046.66
2023-04-21T19:26:34.720Z,101041.66
2023-04-21T19:29:01.155Z,101042.59
2023-04-21T19:31:27.654Z,101054.72
2023-04-21T19:33:54.037Z,101044.72
2023-04-21T19:36:20.629Z,101031.22
2023-04-21T19:38:47.355Z,101026.38
2023-04-21T19:41:13.807Z,101024.19
2023-04-21T19:43:40.348Z,101027.97
2023-04-21T19:46:06.990Z,101029.75
2023-04-21T19:48:33.542Z,101034.94
2023-04-21T19:51:00.906Z,101033.22
2023-04-21T19:53:27.359Z,101024.72
2023-04-21T19:55:54.066Z,101023.09
2023-04-21T19:58:36.281Z,101020.69
2023-04-21T20:01:06.023Z,101030.06
2023-04-21T20:03:33.082Z,101021.69
2023-04-21T20:06:01.600Z,101021.59
2023-04-21T20:08:29.033Z,101025.97
2023-04-21T20:10:55.428Z,101011.56
2023-04-21T20:13:21.826Z,101021.81
2023-04-21T20:15:48.513Z,101024.47
2023-04-21T20:18:15.064Z,101021.38
2023-04-21T20:20:41.608Z,101011.13
2023-04-21T20:23:08.085Z,101010.25
2023-04-21T20:25:34.510Z,101015.31
2023-04-21T20:28:01.142Z,101008.47
2023-04-21T20:30:27.543Z,101003.47
2023-04-21T20:32:54.063Z,100994.16
2023-04-21T20:35:20.680Z,100993.31
2023-04-21T20:37:47.259Z,100996.56
2023-04-21T20:40:14.738Z,100995.13
2023-04-21T20:42:45.117Z,101001.19
2023-04-21T20:45:12.857Z,101003.69
2023-04-21T20:47:39.688Z,101039.41
2023-04-21T20:50:07.126Z,101055.63
2023-04-21T20:52:33.809Z,101049.78
2023-04-21T20:55:00.404Z,101081.53
2023-04-21T20:57:27.348Z,101104.69
2023-04-21T20:59:53.761Z,101109.13
2023-04-21T21:02:20.611Z,101110.97
2023-04-21T21:04:47.662Z,101117.84
2023-04-21T21:07:14.659Z,101120.34
2023-04-21T21:09:41.372Z,101146.75
2023-04-21T21:12:08.163Z,101150.06
2023-04-21T21:14:34.746Z,101163.63
2023-04-21T21:17:01.544Z,101174.69
2023-04-21T21:19:28.108Z,101165.19
2023-04-21T21:21:54.540Z,101171.97
2023-04-21T21:24:21.088Z,101168.56
2023-04-21T21:26:47.491Z,101175.41
2023-04-21T21:29:13.934Z,101164.38
2023-04-21T21:31:40.568Z,101151.56
2023-04-21T21:34:07.098Z,101147.22
2023-04-21T21:36:33.541Z,101142.09
2023-04-21T21:38:59.949Z,101131.03
2023-04-21T21:41:26.410Z,101127.69
2023-04-21T21:43:52.804Z,101121.63
2023-04-21T21:46:19.639Z,101135.22
2023-04-21T21:48:46.340Z,101125.72
2023-04-21T21:51:12.796Z,101121.38
2023-04-21T21:53:39.191Z,101121.38
2023-04-21T21:56:06.484Z,101117.16
2023-04-21T21:58:33.070Z,101104.38
2023-04-21T22:00:59.609Z,101094.22
2023-04-21T22:03:26.271Z,101088.25
2023-04-21T22:05:52.837Z,101084.09
2023-04-21T22:08:19.310Z,101080.81
2023-04-21T22:10:46.050Z,101074.09
2023-04-21T22:13:12.518Z,101069.03
2023-04-21T22:15:39.264Z,101069.94
2023-04-21T22:18:07.080Z,101063.19
2023-04-21T22:20:33.845Z,101061.72
2023-04-21T22:23:00.376Z,101057.56
2023-04-21T22:25:27.353Z,101046.59
2023-04-21T22:27:54.868Z,101051.81
2023-04-21T22:30:21.570Z,101052.00
2023-04-21T22:32:48.256Z,101046.97
2023-04-21T22:35:15.325Z,101060.66
2023-04-21T22:37:42.082Z,101056.47
2023-04-21T22:40:09.912Z,101042.03
2023-04-21T22:42:36.844Z,101044.66
2023-04-21T22:45:05.312Z,101046.34
2023-04-21T22:47:33.430Z,101049.00
2023-04-21T22:49:59.909Z,101044.81
2023-04-21T22:52:26.893Z,101049.16
2023-04-21T22:54:54.204Z,101044.19
2023-04-21T22:57:21.535Z,101041.72
2023-04-21T22:59:47.932Z,101044.38
2023-04-21T23:02:14.451Z,101041.88
2023-04-21T23:04:41.168Z,101047.00
2023-04-21T23:07:07.726Z,101036.81
2023-04-21T23:09:34.151Z,101039.44
2023-04-21T23:12:01.434Z,101042.91
2023-04-21T23:14:28.071Z,101042.13
2023-04-21T23:16:54.608Z,101038.84
2023-04-21T23:19:21.104Z,101041.50
2023-04-21T23:21:47.590Z,101041.59
2023-04-21T23:24:14.111Z,101041.75
2023-04-21T23:26:41.173Z,101040.09
2023-04-21T23:29:07.588Z,101040.16
2023-04-21T23:31:34.361Z,101042.00
2023-04-21T23:34:00.764Z,101039.59
2023-04-21T23:36:27.373Z,101039.59
2023-04-21T23:38:54.195Z,101039.69
2023-04-21T23:41:21.249Z,101037.22
2023-04-21T23:43:47.694Z,101044.97
2023-04-21T23:46:15.104Z,101041.63
2023-04-21T23:48:41.751Z,101043.47
2023-04-21T23:51:08.262Z,101047.81
2023-04-21T23:53:34.816Z,101047.06
2023-04-21T23:56:01.460Z,101053.97
2023-04-21T23:58:28.115Z,101041.38
